sensor_id;sensor_type;location;lat;lon;timestamp;pressure;altitude;pressure_sealevel;temperature;humidity
53246;BME280;39569;51.090;-1.786;2023-03-15T00:01:53;100827.91;;;9.20;60.46
53246;BME280;39569;51.090;-1.786;2023-03-15T00:04:19;100823.13;;;9.32;60.31
53246;BME280;39569;51.090;-1.786;2023-03-15T00:06:46;100829.22;;;9.08;60.29
53246;BME280;39569;51.090;-1.786;2023-03-15T00:09:13;100835.09;;;9.28;60.44
53246;BME280;39569;51.090;-1.786;2023-03-15T00:11:40;100834.13;;;9.37;59.60
53246;BME280;39569;51.090;-1.786;2023-03-15T00:14:07;100829.44;;;9.23;60.30
53246;BME280;39569;51.090;-1.786;2023-03-15T00:16:34;100840.97;;;9.55;58.22
53246;BME280;39569;51.090;-1.786;2023-03-15T00:19:03;100845.97;;;9.50;58.85
53246;BME280;39569;51.090;-1.786;2023-03-15T00:21:29;100845.81;;;9.76;58.47
53246;BME280;39569;51.090;-1.786;2023-03-15T00:23:57;100855.97;;;9.48;58.00
53246;BME280;39569;51.090;-1.786;2023-03-15T00:26:24;100856.22;;;9.13;59.44
53246;BME280;39569;51.090;-1.786;2023-03-15T00:28:50;100853.25;;;8.74;61.02
53246;BME280;39569;51.090;-1.786;2023-03-15T00:31:19;100854.88;;;9.09;60.60
53246;BME280;39569;51.090;-1.786;2023-03-15T00:33:47;100863.13;;;9.48;58.72
53246;BME280;39569;51.090;-1.786;2023-03-15T00:36:20;100859.19;;;9.02;59.41
53246;BME280;39569;51.090;-1.786;2023-03-15T00:38:50;100861.53;;;9.05;60.54
53246;BME280;39569;51.090;-1.786;2023-03-15T00:41:18;100863.09;;;9.32;59.44
53246;BME280;39569;51.090;-1.786;2023-03-15T00:43:46;100872.94;;;9.39;59.17
53246;BME280;39569;51.090;-1.786;2023-03-15T00:46:13;100867.50;;;9.07;60.25
53246;BME280;39569;51.090;-1.786;2023-03-15T00:48:40;100866.53;;;9.08;59.34
53246;BME280;39569;51.090;-1.786;2023-03-15T00:51:09;100859.28;;;8.51;61.30
53246;BME280;39569;51.090;-1.786;2023-03-15T00:53:38;100865.31;;;8.35;62.85
53246;BME280;39569;51.090;-1.786;2023-03-15T00:56:08;100866.75;;;8.47;62.79
53246;BME280;39569;51.090;-1.786;2023-03-15T00:58:35;100862.38;;;8.38;61.62
53246;BME280;39569;51.090;-1.786;2023-03-15T01:01:05;100865.59;;;8.83;61.53
53246;BME280;39569;51.090;-1.786;2023-03-15T01:03:32;100865.81;;;8.98;59.95
53246;BME280;39569;51.090;-1.786;2023-03-15T01:06:04;100871.31;;;8.97;60.64
53246;BME280;39569;51.090;-1.786;2023-03-15T01:08:30;100863.09;;;8.82;59.52
53246;BME280;39569;51.090;-1.786;2023-03-15T01:11:02;100871.69;;;9.10;60.09
53246;BME280;39569;51.090;-1.786;2023-03-15T01:13:29;100873.75;;;9.24;59.31
53246;BME280;39569;51.090;-1.786;2023-03-15T01:15:56;100872.66;;;9.58;57.53
53246;BME280;39569;51.090;-1.786;2023-03-15T01:18:23;100874.94;;;9.37;57.90
53246;BME280;39569;51.090;-1.786;2023-03-15T01:20:50;100881.63;;;9.57;56.93
53246;BME280;39569;51.090;-1.786;2023-03-15T01:23:17;100882.34;;;9.10;59.10
53246;BME280;39569;51.090;-1.786;2023-03-15T01:25:43;100894.78;;;9.43;58.11
53246;BME280;39569;51.090;-1.786;2023-03-15T01:28:11;100888.97;;;9.55;57.62
53246;BME280;39569;51.090;-1.786;2023-03-15T01:30:38;100882.56;;;9.24;58.18
53246;BME280;39569;51.090;-1.786;2023-03-15T01:33:05;100892.66;;;9.54;56.56
53246;BME280;39569;51.090;-1.786;2023-03-15T01:35:32;100903.31;;;9.54;56.69
53246;BME280;39569;51.090;-1.786;2023-03-15T01:37:59;100909.44;;;9.47;56.60
53246;BME280;39569;51.090;-1.786;2023-03-15T01:40:25;100915.81;;;9.46;56.38
53246;BME280;39569;51.090;-1.786;2023-03-15T01:46:12;100918.72;;;9.27;56.01
53246;BME280;39569;51.090;-1.786;2023-03-15T01:48:42;100923.44;;;8.99;56.91
53246;BME280;39569;51.090;-1.786;2023-03-15T01:51:13;100925.59;;;9.04;56.42
53246;BME280;39569;51.090;-1.786;2023-03-15T01:53:45;100921.56;;;8.91;56.35
53246;BME280;39569;51.090;-1.786;2023-03-15T01:56:14;100921.34;;;8.85;56.71
53246;BME280;39569;51.090;-1.786;2023-03-15T01:58:42;100913.81;;;8.72;56.75
53246;BME280;39569;51.090;-1.786;2023-03-15T02:01:13;100921.75;;;8.64;56.67
53246;BME280;39569;51.090;-1.786;2023-03-15T02:03:44;100912.69;;;8.49;56.47
53246;BME280;39569;51.090;-1.786;2023-03-15T02:06:14;100907.88;;;8.27;56.80
53246;BME280;39569;51.090;-1.786;2023-03-15T02:08:46;100907.88;;;8.27;56.56
53246;BME280;39569;51.090;-1.786;2023-03-15T02:11:16;100914.69;;;8.30;57.12
53246;BME280;39569;51.090;-1.786;2023-03-15T02:13:45;100920.16;;;8.28;56.61
53246;BME280;39569;51.090;-1.786;2023-03-15T02:16:15;100906.63;;;8.22;56.18
53246;BME280;39569;51.090;-1.786;2023-03-15T02:18:42;100910.75;;;7.98;56.46
53246;BME280;39569;51.090;-1.786;2023-03-15T02:21:14;100906.72;;;8.12;57.29
53246;BME280;39569;51.090;-1.786;2023-03-15T02:23:52;100914.84;;;8.11;57.69
53246;BME280;39569;51.090;-1.786;2023-03-15T02:26:24;100926.47;;;8.10;57.13
53246;BME280;39569;51.090;-1.786;2023-03-15T02:28:55;100926.19;;;8.13;56.37
53246;BME280;39569;51.090;-1.786;2023-03-15T02:31:22;100926.78;;;8.07;56.86
53246;BME280;39569;51.090;-1.786;2023-03-15T02:33:51;100928.91;;;8.03;56.66
53246;BME280;39569;51.090;-1.786;2023-03-15T02:36:22;100924.72;;;8.01;56.41
53246;BME280;39569;51.090;-1.786;2023-03-15T02:38:50;100926.94;;;7.87;56.59
53246;BME280;39569;51.090;-1.786;2023-03-15T02:41:20;100930.34;;;7.80;57.26
53246;BME280;39569;51.090;-1.786;2023-03-15T02:43:51;100927.94;;;7.86;57.02
53246;BME280;39569;51.090;-1.786;2023-03-15T02:46:21;100927.41;;;7.83;57.17
53246;BME280;39569;51.090;-1.786;2023-03-15T02:48:49;100928.22;;;7.83;56.71
53246;BME280;39569;51.090;-1.786;2023-03-15T02:51:20;100924.88;;;7.81;57.18
53246;BME280;39569;51.090;-1.786;2023-03-15T02:53:48;100910.53;;;7.74;57.16
53246;BME280;39569;51.090;-1.786;2023-03-15T02:56:14;100906.75;;;7.77;56.68
53246;BME280;39569;51.090;-1.786;2023-03-15T02:58:42;100905.75;;;7.60;57.01
53246;BME280;39569;51.090;-1.786;2023-03-15T03:01:10;100909.53;;;7.58;56.43
53246;BME280;39569;51.090;-1.786;2023-03-15T03:03:38;100907.19;;;7.55;57.40
53246;BME280;39569;51.090;-1.786;2023-03-15T03:06:05;100904.47;;;7.64;57.18
53246;BME280;39569;51.090;-1.786;2023-03-15T03:08:32;100915.09;;;7.64;57.54
53246;BME280;39569;51.090;-1.786;2023-03-15T03:10:59;100919.78;;;7.70;56.44
53246;BME280;39569;51.090;-1.786;2023-03-15T03:13:26;100921.69;;;7.60;56.88
53246;BME280;39569;51.090;-1.786;2023-03-15T03:15:52;100918.03;;;7.61;57.04
53246;BME280;39569;51.090;-1.786;2023-03-15T03:18:23;100928.19;;;7.48;57.19
53246;BME280;39569;51.090;-1.786;2023-03-15T03:20:55;100941.00;;;7.62;57.33
53246;BME280;39569;51.090;-1.786;2023-03-15T03:23:22;100928.19;;;7.48;57.38
53246;BME280;39569;51.090;-1.786;2023-03-15T03:25:50;100936.25;;;7.56;57.38
53246;BME280;39569;51.090;-1.786;2023-03-15T03:28:18;100937.16;;;7.47;56.66
53246;BME280;39569;51.090;-1.786;2023-03-15T03:30:45;100936.56;;;7.53;57.03
53246;BME280;39569;51.090;-1.786;2023-03-15T03:33:11;100934.50;;;7.47;57.29
53246;BME280;39569;51.090;-1.786;2023-03-15T03:35:38;100940.25;;;7.43;57.02
53246;BME280;39569;51.090;-1.786;2023-03-15T03:38:07;100951.88;;;7.42;57.15
53246;BME280;39569;51.090;-1.786;2023-03-15T03:40:34;100951.00;;;7.24;56.83
53246;BME280;39569;51.090;-1.786;2023-03-15T03:43:01;100954.97;;;7.10;57.24
53246;BME280;39569;51.090;-1.786;2023-03-15T03:45:27;100961.44;;;6.98;57.62
53246;BME280;39569;51.090;-1.786;2023-03-15T03:47:54;100961.25;;;7.09;57.29
53246;BME280;39569;51.090;-1.786;2023-03-15T03:50:21;100967.25;;;7.11;57.04
53246;BME280;39569;51.090;-1.786;2023-03-15T03:52:48;100966.03;;;7.06;56.96
53246;BME280;39569;51.090;-1.786;2023-03-15T03:55:16;100966.72;;;7.08;56.95
53246;BME280;39569;51.090;-1.786;2023-03-15T03:57:43;100972.78;;;6.90;57.50
53246;BME280;39569;51.090;-1.786;2023-03-15T04:00:12;100969.56;;;6.96;57.00
53246;BME280;39569;51.090;-1.786;2023-03-15T04:02:39;100958.41;;;6.93;57.35
53246;BME280;39569;51.090;-1.786;2023-03-15T04:05:08;100962.16;;;6.90;57.33
53246;BME280;39569;51.090;-1.786;2023-03-15T04:07:35;100960.66;;;6.88;57.39
53246;BME280;39569;51.090;-1.786;2023-03-15T04:10:03;100959.50;;;6.90;57.36
53246;BME280;39569;51.090;-1.786;2023-03-15T04:12:31;100952.34;;;7.01;57.08
53246;BME280;39569;51.090;-1.786;2023-03-15T04:14:58;100958.84;;;6.88;57.84
53246;BME280;39569;51.090;-1.786;2023-03-15T04:17:25;100955.38;;;6.78;57.74
53246;BME280;39569;51.090;-1.786;2023-03-15T04:19:51;100959.84;;;6.78;57.83
53246;BME280;39569;51.090;-1.786;2023-03-15T04:22:18;100949.88;;;6.89;57.71
53246;BME280;39569;51.090;-1.786;2023-03-15T04:24:45;100960.09;;;6.84;57.56
53246;BME280;39569;51.090;-1.786;2023-03-15T04:27:15;100968.06;;;6.84;57.93
53246;BME280;39569;51.090;-1.786;2023-03-15T04:29:43;100967.38;;;6.82;57.65
53246;BME280;39569;51.090;-1.786;2023-03-15T04:32:10;100968.78;;;6.77;57.57
53246;BME280;39569;51.090;-1.786;2023-03-15T04:34:37;100971.63;;;6.66;57.64
53246;BME280;39569;51.090;-1.786;2023-03-15T04:37:04;100967.91;;;6.86;57.66
53246;BME280;39569;51.090;-1.786;2023-03-15T04:39:31;100970.44;;;6.87;57.58
53246;BME280;39569;51.090;-1.786;2023-03-15T04:41:58;100971.41;;;6.86;57.45
53246;BME280;39569;51.090;-1.786;2023-03-15T04:44:25;100967.38;;;6.82;57.66
53246;BME280;39569;51.090;-1.786;2023-03-15T04:46:53;100958.09;;;6.96;57.73
53246;BME280;39569;51.090;-1.786;2023-03-15T04:49:20;100955.19;;;6.89;57.67
53246;BME280;39569;51.090;-1.786;2023-03-15T04:51:47;100967.47;;;6.90;57.66
53246;BME280;39569;51.090;-1.786;2023-03-15T04:54:14;100965.94;;;6.97;57.50
53246;BME280;39569;51.090;-1.786;2023-03-15T04:56:41;100967.31;;;7.02;57.61
53246;BME280;39569;51.090;-1.786;2023-03-15T04:59:08;100975.50;;;6.71;57.89
53246;BME280;39569;51.090;-1.786;2023-03-15T05:01:35;100967.91;;;6.86;57.68
53246;BME280;39569;51.090;-1.786;2023-03-15T05:04:04;100969.56;;;6.96;57.35
53246;BME280;39569;51.090;-1.786;2023-03-15T05:06:30;100971.28;;;6.78;57.41
53246;BME280;39569;51.090;-1.786;2023-03-15T05:08:57;100976.81;;;6.94;57.38
53246;BME280;39569;51.090;-1.786;2023-03-15T05:11:24;100978.16;;;6.81;57.69
53246;BME280;39569;51.090;-1.786;2023-03-15T05:13:51;100978.84;;;6.83;57.22
53246;BME280;39569;51.090;-1.786;2023-03-15T05:16:18;100972.06;;;6.98;57.68
53246;BME280;39569;51.090;-1.786;2023-03-15T05:18:45;100966.56;;;7.09;57.36
53246;BME280;39569;51.090;-1.786;2023-03-15T05:21:14;100965.72;;;7.18;57.28
53246;BME280;39569;51.090;-1.786;2023-03-15T05:23:40;100971.69;;;7.20;56.97
53246;BME280;39569;51.090;-1.786;2023-03-15T05:26:07;100971.09;;;7.26;57.11
53246;BME280;39569;51.090;-1.786;2023-03-15T05:28:34;100969.44;;;7.25;57.39
53246;BME280;39569;51.090;-1.786;2023-03-15T05:31:01;100979.78;;;7.28;57.47
53246;BME280;39569;51.090;-1.786;2023-03-15T05:33:28;100995.59;;;7.20;57.21
53246;BME280;39569;51.090;-1.786;2023-03-15T05:35:55;100995.19;;;7.15;57.75
53246;BME280;39569;51.090;-1.786;2023-03-15T05:38:24;100996.69;;;7.27;57.19
53246;BME280;39569;51.090;-1.786;2023-03-15T05:40:52;100994.16;;;7.26;57.34
53246;BME280;39569;51.090;-1.786;2023-03-15T05:43:19;100999.94;;;7.21;57.59
53246;BME280;39569;51.090;-1.786;2023-03-15T05:45:46;101001.75;;;7.21;56.95
53246;BME280;39569;51.090;-1.786;2023-03-15T05:48:14;101007.59;;;7.24;57.11
53246;BME280;39569;51.090;-1.786;2023-03-15T05:50:41;101013.56;;;7.09;57.39
53246;BME280;39569;51.090;-1.786;2023-03-15T05:53:08;101011.94;;;7.25;56.59
53246;BME280;39569;51.090;-1.786;2023-03-15T05:55:36;101014.88;;;7.22;56.75
53246;BME280;39569;51.090;-1.786;2023-03-15T05:58:04;101014.50;;;7.17;57.27
53246;BME280;39569;51.090;-1.786;2023-03-15T06:00:31;101016.84;;;7.20;57.54
53246;BME280;39569;51.090;-1.786;2023-03-15T06:02:58;101016.44;;;7.15;57.19
53246;BME280;39569;51.090;-1.786;2023-03-15T06:05:51;101016.44;;;7.15;57.19
53246;BME280;39569;51.090;-1.786;2023-03-15T06:08:18;101022.84;;;7.22;57.10
53246;BME280;39569;51.090;-1.786;2023-03-15T06:10:46;101017.28;;;7.16;57.22
53246;BME280;39569;51.090;-1.786;2023-03-15T06:13:13;101011.44;;;7.12;57.32
53246;BME280;39569;51.090;-1.786;2023-03-15T06:15:39;101005.94;;;7.23;56.79
53246;BME280;39569;51.090;-1.786;2023-03-15T06:18:06;101008.84;;;7.30;57.20
53246;BME280;39569;51.090;-1.786;2023-03-15T06:20:33;101012.66;;;7.27;56.66
53246;BME280;39569;51.090;-1.786;2023-03-15T06:23:00;101023.00;;;7.21;56.71
53246;BME280;39569;51.090;-1.786;2023-03-15T06:25:27;101019.13;;;7.06;57.25
53246;BME280;39569;51.090;-1.786;2023-03-15T06:27:56;101030.81;;;7.22;57.11
53246;BME280;39569;51.090;-1.786;2023-03-15T06:30:23;101023.97;;;7.29;56.84
53246;BME280;39569;51.090;-1.786;2023-03-15T06:32:50;101033.91;;;7.18;57.12
53246;BME280;39569;51.090;-1.786;2023-03-15T06:35:18;101022.78;;;7.41;57.14
53246;BME280;39569;51.090;-1.786;2023-03-15T06:37:45;101023.97;;;7.29;56.85
53246;BME280;39569;51.090;-1.786;2023-03-15T06:40:13;101025.75;;;7.38;56.64
53246;BME280;39569;51.090;-1.786;2023-03-15T06:42:40;101022.66;;;7.33;56.65
53246;BME280;39569;51.090;-1.786;2023-03-15T06:45:09;101028.81;;;7.34;56.88
53246;BME280;39569;51.090;-1.786;2023-03-15T06:47:36;101028.41;;;7.38;56.88
53246;BME280;39569;51.090;-1.786;2023-03-15T06:50:03;101026.50;;;7.48;56.89
53246;BME280;39569;51.090;-1.786;2023-03-15T06:52:30;101031.63;;;7.59;56.68
53246;BME280;39569;51.090;-1.786;2023-03-15T06:54:57;101034.41;;;7.67;56.65
53246;BME280;39569;51.090;-1.786;2023-03-15T06:57:23;101037.75;;;7.69;56.42
53246;BME280;39569;51.090;-1.786;2023-03-15T06:59:50;101036.94;;;7.86;56.69
53246;BME280;39569;51.090;-1.786;2023-03-15T07:02:19;101035.31;;;8.03;56.77
53246;BME280;39569;51.090;-1.786;2023-03-15T07:04:46;101037.97;;;8.03;56.23
53246;BME280;39569;51.090;-1.786;2023-03-15T07:07:14;101034.25;;;8.14;56.07
53246;BME280;39569;51.090;-1.786;2023-03-15T07:09:41;101039.50;;;8.23;56.00
53246;BME280;39569;51.090;-1.786;2023-03-15T07:12:09;101054.84;;;8.12;56.41
53246;BME280;39569;51.090;-1.786;2023-03-15T07:14:36;101054.25;;;8.35;56.36
53246;BME280;39569;51.090;-1.786;2023-03-15T07:17:03;101062.50;;;8.42;56.25
53246;BME280;39569;51.090;-1.786;2023-03-15T07:19:31;101054.56;;;8.67;55.00
53246;BME280;39569;51.090;-1.786;2023-03-15T07:21:58;101057.38;;;8.66;55.63
53246;BME280;39569;51.090;-1.786;2023-03-15T07:24:24;101056.13;;;8.78;56.00
53246;BME280;39569;51.090;-1.786;2023-03-15T07:26:52;101058.34;;;8.82;55.28
53246;BME280;39569;51.090;-1.786;2023-03-15T07:29:21;101062.47;;;8.77;55.34
53246;BME280;39569;51.090;-1.786;2023-03-15T07:31:47;101057.56;;;8.90;55.68
53246;BME280;39569;51.090;-1.786;2023-03-15T07:34:14;101055.47;;;9.02;55.78
53246;BME280;39569;51.090;-1.786;2023-03-15T07:36:42;101057.03;;;9.38;54.46
53246;BME280;39569;51.090;-1.786;2023-03-15T07:40:08;62679.75;;;-139.47;100.00
53246;BME280;39569;51.090;-1.786;2023-03-15T07:42:36;101057.59;;;9.49;54.58
53246;BME280;39569;51.090;-1.786;2023-03-15T07:45:04;101052.28;;;9.57;54.00
53246;BME280;39569;51.090;-1.786;2023-03-15T07:47:32;101064.66;;;9.66;54.64
53246;BME280;39569;51.090;-1.786;2023-03-15T07:49:59;101058.22;;;9.77;54.35
53246;BME280;39569;51.090;-1.786;2023-03-15T07:52:27;101064.22;;;9.79;55.25
53246;BME280;39569;51.090;-1.786;2023-03-15T07:54:53;101065.41;;;9.84;55.34
53246;BME280;39569;51.090;-1.786;2023-03-15T07:57:20;101052.22;;;10.25;54.82
53246;BME280;39569;51.090;-1.786;2023-03-15T07:59:47;101049.56;;;10.49;54.09
53246;BME280;39569;51.090;-1.786;2023-03-15T08:02:14;101050.59;;;10.64;53.85
53246;BME280;39569;51.090;-1.786;2023-03-15T08:04:41;101043.06;;;10.43;54.59
53246;BME280;39569;51.090;-1.786;2023-03-15T08:07:09;101045.72;;;10.83;53.27
53246;BME280;39569;51.090;-1.786;2023-03-15T08:09:37;101036.88;;;10.75;54.04
53246;BME280;39569;51.090;-1.786;2023-03-15T08:12:04;101042.91;;;10.77;53.82
53246;BME280;39569;51.090;-1.786;2023-03-15T08:14:31;101038.03;;;11.05;52.89
53246;BME280;39569;51.090;-1.786;2023-03-15T08:16:58;101045.88;;;11.06;53.60
53246;BME280;39569;51.090;-1.786;2023-03-15T08:19:25;101048.38;;;11.00;53.36
53246;BME280;39569;51.090;-1.786;2023-03-15T08:21:52;101051.91;;;10.84;53.11
53246;BME280;39569;51.090;-1.786;2023-03-15T08:24:19;101044.22;;;10.89;53.68
53246;BME280;39569;51.090;-1.786;2023-03-15T08:26:47;101052.22;;;11.05;53.47
53246;BME280;39569;51.090;-1.786;2023-03-15T08:29:15;101051.56;;;11.03;53.54
53246;BME280;39569;51.090;-1.786;2023-03-15T08:31:42;101046.19;;;11.11;53.96
53246;BME280;39569;51.090;-1.786;2023-03-15T08:34:09;101054.19;;;11.19;53.79
53246;BME280;39569;51.090;-1.786;2023-03-15T08:36:36;101041.91;;;11.57;53.60
53246;BME280;39569;51.090;-1.786;2023-03-15T08:39:03;101047.81;;;11.36;53.44
53246;BME280;39569;51.090;-1.786;2023-03-15T08:41:30;101045.56;;;11.01;53.81
53246;BME280;39569;51.090;-1.786;2023-03-15T08:43:59;101045.69;;;11.00;54.00
53246;BME280;39569;51.090;-1.786;2023-03-15T08:46:26;101048.38;;;11.16;53.56
53246;BME280;39569;51.090;-1.786;2023-03-15T08:48:53;101048.72;;;10.97;54.31
53246;BME280;39569;51.090;-1.786;2023-03-15T08:51:20;101057.06;;;11.18;53.78
53246;BME280;39569;51.090;-1.786;2023-03-15T08:53:50;101047.28;;;11.41;53.71
53246;BME280;39569;51.090;-1.786;2023-03-15T08:56:17;101056.13;;;11.49;53.54
53246;BME280;39569;51.090;-1.786;2023-03-15T08:58:44;101046.47;;;11.40;54.15
53246;BME280;39569;51.090;-1.786;2023-03-15T09:01:13;101044.16;;;11.84;53.32
53246;BME280;39569;51.090;-1.786;2023-03-15T09:03:40;101036.94;;;12.15;53.01
53246;BME280;39569;51.090;-1.786;2023-03-15T09:06:08;101036.41;;;12.42;52.63
53246;BME280;39569;51.090;-1.786;2023-03-15T09:08:35;101037.97;;;12.14;52.94
53246;BME280;39569;51.090;-1.786;2023-03-15T09:11:02;101037.31;;;12.57;52.34
53246;BME280;39569;51.090;-1.786;2023-03-15T09:13:29;101040.41;;;12.69;52.39
53246;BME280;39569;51.090;-1.786;2023-03-15T09:15:56;101039.94;;;12.43;52.62
53246;BME280;39569;51.090;-1.786;2023-03-15T09:18:24;101043.25;;;12.90;52.22
53246;BME280;39569;51.090;-1.786;2023-03-15T09:20:51;101041.56;;;12.89;51.91
53246;BME280;39569;51.090;-1.786;2023-03-15T09:23:18;101037.97;;;12.97;52.11
53246;BME280;39569;51.090;-1.786;2023-03-15T09:25:45;101032.38;;;13.21;51.83
53246;BME280;39569;51.090;-1.786;2023-03-15T09:28:11;101028.50;;;13.09;51.63
53246;BME280;39569;51.090;-1.786;2023-03-15T09:30:39;101026.38;;;13.48;51.36
53246;BME280;39569;51.090;-1.786;2023-03-15T09:33:07;101041.06;;;13.66;51.33
53246;BME280;39569;51.090;-1.786;2023-03-15T09:35:35;101038.31;;;13.74;50.95
53246;BME280;39569;51.090;-1.786;2023-03-15T09:38:02;101044.06;;;13.71;50.61
53246;BME280;39569;51.090;-1.786;2023-03-15T09:40:31;101046.00;;;13.48;50.80
53246;BME280;39569;51.090;-1.786;2023-03-15T09:43:02;101047.75;;;13.56;50.14
53246;BME280;39569;51.090;-1.786;2023-03-15T09:45:47;101041.91;;;13.81;49.63
53246;BME280;39569;51.090;-1.786;2023-03-15T09:48:23;101037.63;;;13.87;49.63
53246;BME280;39569;51.090;-1.786;2023-03-15T09:50:57;101039.72;;;13.27;50.40
53246;BME280;39569;51.090;-1.786;2023-03-15T09:53:28;101047.09;;;13.39;50.09
53246;BME280;39569;51.090;-1.786;2023-03-15T09:55:57;101043.28;;;13.77;49.19
53246;BME280;39569;51.090;-1.786;2023-03-15T09:58:25;101047.44;;;13.95;49.27
53246;BME280;39569;51.090;-1.786;2023-03-15T10:00:59;101050.50;;;13.92;50.11
53246;BME280;39569;51.090;-1.786;2023-03-15T10:03:32;101050.69;;;13.75;49.02
53246;BME280;39569;51.090;-1.786;2023-03-15T10:06:09;101049.38;;;14.22;48.57
53246;BME280;39569;51.090;-1.786;2023-03-15T10:08:38;101049.59;;;13.70;48.76
53246;BME280;39569;51.090;-1.786;2023-03-15T10:11:08;101047.69;;;14.00;48.95
53246;BME280;39569;51.090;-1.786;2023-03-15T10:13:47;101045.69;;;13.87;49.49
53246;BME280;39569;51.090;-1.786;2023-03-15T10:16:26;101052.75;;;13.59;49.74
53246;BME280;39569;51.090;-1.786;2023-03-15T10:19:09;101057.94;;;13.60;49.48
53246;BME280;39569;51.090;-1.786;2023-03-15T10:21:48;101050.22;;;14.01;48.54
53246;BME280;39569;51.090;-1.786;2023-03-15T10:24:19;101052.56;;;14.11;48.03
53246;BME280;39569;51.090;-1.786;2023-03-15T10:26:48;101047.44;;;13.95;48.16
53246;BME280;39569;51.090;-1.786;2023-03-15T10:29:20;101048.75;;;13.84;48.60
53246;BME280;39569;51.090;-1.786;2023-03-15T10:31:48;101040.03;;;13.97;47.96
53246;BME280;39569;51.090;-1.786;2023-03-15T10:34:17;101038.88;;;14.06;48.62
53246;BME280;39569;51.090;-1.786;2023-03-15T10:36:47;101034.94;;;13.87;48.65
53246;BME280;39569;51.090;-1.786;2023-03-15T10:39:18;101041.31;;;14.01;48.22
53246;BME280;39569;51.090;-1.786;2023-03-15T10:41:47;101036.25;;;13.76;47.92
53246;BME280;39569;51.090;-1.786;2023-03-15T10:44:16;101033.88;;;13.67;48.88
53246;BME280;39569;51.090;-1.786;2023-03-15T10:46:59;101028.88;;;14.00;48.40
53246;BME280;39569;51.090;-1.786;2023-03-15T10:49:32;101036.44;;;14.25;48.04
53246;BME280;39569;51.090;-1.786;2023-03-15T10:52:01;101031.59;;;14.56;47.75
53246;BME280;39569;51.090;-1.786;2023-03-15T10:54:30;101033.94;;;13.88;49.35
53246;BME280;39569;51.090;-1.786;2023-03-15T10:57:00;101033.47;;;14.56;47.97
53246;BME280;39569;51.090;-1.786;2023-03-15T10:59:29;101029.84;;;14.28;48.01
53246;BME280;39569;51.090;-1.786;2023-03-15T11:02:14;101032.56;;;14.49;46.98
53246;BME280;39569;51.090;-1.786;2023-03-15T11:04:48;101025.63;;;14.61;47.34
53246;BME280;39569;51.090;-1.786;2023-03-15T11:07:16;101031.53;;;14.71;46.63
53246;BME280;39569;51.090;-1.786;2023-03-15T11:09:44;101027.22;;;14.76;47.42
53246;BME280;39569;51.090;-1.786;2023-03-15T11:12:22;101024.56;;;15.04;47.79
53246;BME280;39569;51.090;-1.786;2023-03-15T11:14:51;101011.28;;;15.30;45.86
53246;BME280;39569;51.090;-1.786;2023-03-15T11:17:21;101011.00;;;15.19;46.00
53246;BME280;39569;51.090;-1.786;2023-03-15T11:19:53;101012.41;;;15.42;46.01
53246;BME280;39569;51.090;-1.786;2023-03-15T11:22:23;101020.22;;;15.71;45.47
53246;BME280;39569;51.090;-1.786;2023-03-15T11:24:50;101018.41;;;15.79;45.12
53246;BME280;39569;51.090;-1.786;2023-03-15T11:27:21;101015.38;;;16.08;45.46
53246;BME280;39569;51.090;-1.786;2023-03-15T11:29:50;101012.53;;;15.62;45.04
53246;BME280;39569;51.090;-1.786;2023-03-15T11:32:19;101009.75;;;15.49;45.85
53246;BME280;39569;51.090;-1.786;2023-03-15T11:34:51;101007.72;;;15.57;46.02
53246;BME280;39569;51.090;-1.786;2023-03-15T11:37:25;101010.00;;;15.54;46.41
53246;BME280;39569;51.090;-1.786;2023-03-15T11:39:58;101004.19;;;15.50;46.05
53246;BME280;39569;51.090;-1.786;2023-03-15T11:42:30;101018.50;;;14.96;47.08
53246;BME280;39569;51.090;-1.786;2023-03-15T11:45:03;101009.91;;;15.41;46.75
53246;BME280;39569;51.090;-1.786;2023-03-15T11:47:40;101016.78;;;15.43;46.78
53246;BME280;39569;51.090;-1.786;2023-03-15T11:50:11;101014.97;;;15.23;46.68
53246;BME280;39569;51.090;-1.786;2023-03-15T11:52:40;101009.56;;;15.23;47.72
53246;BME280;39569;51.090;-1.786;2023-03-15T11:55:16;101009.97;;;15.20;47.36
53246;BME280;39569;51.090;-1.786;2023-03-15T11:57:45;100997.44;;;15.67;46.66
53246;BME280;39569;51.090;-1.786;2023-03-15T12:03:41;100997.94;;;15.43;47.02
53246;BME280;39569;51.090;-1.786;2023-03-15T12:06:32;100997.88;;;15.77;46.58
53246;BME280;39569;51.090;-1.786;2023-03-15T12:09:02;101001.25;;;15.45;46.89
53246;BME280;39569;51.090;-1.786;2023-03-15T12:11:48;101002.81;;;14.99;48.07
53246;BME280;39569;51.090;-1.786;2023-03-15T12:14:29;100994.91;;;14.98;48.56
53246;BME280;39569;51.090;-1.786;2023-03-15T12:20:20;100989.78;;;15.37;48.65
53246;BME280;39569;51.090;-1.786;2023-03-15T12:22:50;100985.56;;;15.21;49.43
53246;BME280;39569;51.090;-1.786;2023-03-15T12:25:23;100997.78;;;14.96;49.54
53246;BME280;39569;51.090;-1.786;2023-03-15T12:27:55;100974.81;;;15.28;50.18
53246;BME280;39569;51.090;-1.786;2023-03-15T12:30:30;100973.16;;;15.27;49.90
53246;BME280;39569;51.090;-1.786;2023-03-15T12:32:58;100970.13;;;15.36;50.01
53246;BME280;39569;51.090;-1.786;2023-03-15T12:35:38;100968.47;;;15.83;50.28
53246;BME280;39569;51.090;-1.786;2023-03-15T12:38:11;100967.75;;;16.28;48.60
53246;BME280;39569;51.090;-1.786;2023-03-15T12:40:51;100970.50;;;16.54;48.27
53246;BME280;39569;51.090;-1.786;2023-03-15T12:43:35;100976.44;;;16.10;48.93
53246;BME280;39569;51.090;-1.786;2023-03-15T12:46:02;100973.25;;;15.40;50.14
53246;BME280;39569;51.090;-1.786;2023-03-15T12:48:29;100971.97;;;15.36;50.16
53246;BME280;39569;51.090;-1.786;2023-03-15T12:51:02;100965.00;;;15.41;50.21
53246;BME280;39569;51.090;-1.786;2023-03-15T12:53:45;100965.59;;;15.91;49.50
53246;BME280;39569;51.090;-1.786;2023-03-15T12:56:33;100963.44;;;15.66;49.45
53246;BME280;39569;51.090;-1.786;2023-03-15T12:59:11;100956.59;;;15.23;50.47
53246;BME280;39569;51.090;-1.786;2023-03-15T13:01:39;100956.31;;;15.46;50.25
53246;BME280;39569;51.090;-1.786;2023-03-15T13:04:08;100945.44;;;15.33;51.38
53246;BME280;39569;51.090;-1.786;2023-03-15T13:06:51;100931.84;;;15.41;51.38